createdAt,value
2018-08-03T00:00:24.844Z,24.12
2018-08-03T00:01:24.562Z,24.11
2018-08-03T00:02:26.362Z,24.10
2018-08-03T00:03:27.135Z,24.09
2018-08-03T00:04:27.917Z,24.08
2018-08-03T00:05:28.683Z,24.07
2018-08-03T00:06:29.465Z,24.06
2018-08-03T00:07:30.263Z,24.05
2018-08-03T00:08:31.035Z,24.04
2018-08-03T00:09:32.806Z,24.03
2018-08-03T00:10:32.581Z,24.02
2018-08-03T00:11:33.720Z,24.00
2018-08-03T00:13:24.659Z,23.77
2018-08-03T00:14:25.442Z,23.77
2018-08-03T00:15:26.201Z,23.77
2018-08-03T00:16:26.975Z,23.77
2018-08-03T00:17:27.765Z,23.77
2018-08-03T00:18:28.541Z,23.77
2018-08-03T00:19:29.309Z,23.77
2018-08-03T00:20:30.094Z,23.77
2018-08-03T00:21:30.855Z,23.76
2018-08-03T00:22:31.652Z,23.76
2018-08-03T00:23:32.424Z,23.76
2018-08-03T00:24:33.194Z,23.75
2018-08-03T00:25:33.973Z,23.75
2018-08-03T00:26:34.746Z,23.74
2018-08-03T00:27:36.269Z,23.74
2018-08-03T00:28:36.040Z,23.74
2018-08-03T00:29:36.813Z,23.73
2018-08-03T00:30:37.591Z,23.73
2018-08-03T00:31:38.363Z,23.72
2018-08-03T00:32:39.169Z,23.72
2018-08-03T00:33:39.938Z,23.71
2018-08-03T00:34:40.717Z,23.70
2018-08-03T00:35:41.492Z,23.69
2018-08-03T00:36:42.275Z,23.67
2018-08-03T00:37:43.069Z,23.66
2018-08-03T00:38:43.840Z,23.65
2018-08-03T00:39:44.616Z,23.64
2018-08-03T00:40:45.390Z,23.62
2018-08-03T00:41:46.165Z,23.61
2018-08-03T00:42:46.965Z,23.59
2018-08-03T00:43:47.743Z,23.58
2018-08-03T00:44:48.511Z,23.57
2018-08-03T00:45:49.291Z,23.57
2018-08-03T00:46:50.067Z,23.56
2018-08-03T00:47:50.872Z,23.55
2018-08-03T00:48:51.640Z,23.54
2018-08-03T00:49:52.411Z,23.53
2018-08-03T00:50:53.191Z,23.53
2018-08-03T00:51:53.963Z,23.52
2018-08-03T00:52:54.769Z,23.52
2018-08-03T00:53:55.536Z,23.50
2018-08-03T00:54:56.317Z,23.49
2018-08-03T00:55:57.087Z,23.48
2018-08-03T00:56:57.867Z,23.47
2018-08-03T00:57:58.667Z,23.46
2018-08-03T00:58:59.438Z,23.45
2018-08-03T01:00:00.208Z,23.43
2018-08-03T01:01:00.985Z,23.42
2018-08-03T01:02:01.750Z,23.40
2018-08-03T01:03:02.547Z,23.39
2018-08-03T01:04:03.319Z,23.37
2018-08-03T01:05:04.091Z,23.36
2018-08-03T01:06:04.867Z,23.34
2018-08-03T01:07:05.639Z,23.33
2018-08-03T01:08:06.443Z,23.31
2018-08-03T01:09:07.213Z,23.30
2018-08-03T01:10:07.990Z,23.28
2018-08-03T01:11:08.763Z,23.26
2018-08-03T01:12:09.534Z,23.25
2018-08-03T01:13:10.335Z,23.23
2018-08-03T01:14:11.109Z,23.21
2018-08-03T01:15:11.881Z,23.19
2018-08-03T01:16:12.649Z,23.18
2018-08-03T01:17:13.426Z,23.17
2018-08-03T01:18:14.224Z,23.16
2018-08-03T01:19:14.990Z,23.15
2018-08-03T01:20:15.762Z,23.14
2018-08-03T01:21:16.541Z,23.13
2018-08-03T01:22:17.318Z,23.12
2018-08-03T01:23:18.115Z,23.11
2018-08-03T01:24:18.889Z,23.10
2018-08-03T01:25:19.664Z,23.09
2018-08-03T01:26:20.440Z,23.08
2018-08-03T01:27:21.214Z,23.07
2018-08-03T01:28:22.021Z,23.06
2018-08-03T01:29:22.787Z,23.06
2018-08-03T01:30:23.565Z,23.05
2018-08-03T01:31:24.338Z,23.05
2018-08-03T01:32:25.114Z,23.04
2018-08-03T01:33:25.916Z,23.03
2018-08-03T01:34:26.689Z,23.03
2018-08-03T01:35:27.479Z,23.02
2018-08-03T01:36:28.248Z,23.02
2018-08-03T01:37:29.025Z,23.02
2018-08-03T01:38:29.819Z,23.01
2018-08-03T01:39:30.590Z,23.01
2018-08-03T01:40:31.364Z,23.00
2018-08-03T01:41:32.142Z,22.99
2018-08-03T01:42:32.911Z,22.99
2018-08-03T01:43:33.714Z,22.98
2018-08-03T01:44:34.486Z,22.97
2018-08-03T01:45:35.272Z,22.96
2018-08-03T01:46:36.044Z,22.95
2018-08-03T01:47:36.814Z,22.95
2018-08-03T01:48:37.617Z,22.94
2018-08-03T01:49:38.389Z,22.93
2018-08-03T01:50:39.167Z,22.92
2018-08-03T01:51:39.937Z,22.91
2018-08-03T01:52:40.717Z,22.90
2018-08-03T01:53:41.516Z,22.89
2018-08-03T01:54:42.292Z,22.88
2018-08-03T01:55:43.063Z,22.88
2018-08-03T01:56:43.844Z,22.87
2018-08-03T01:57:44.619Z,22.86
2018-08-03T01:58:45.414Z,22.85
2018-08-03T01:59:46.587Z,22.83
2018-08-03T02:04:49.866Z,22.57
2018-08-03T02:05:50.637Z,22.57
2018-08-03T02:06:50.409Z,22.57
2018-08-03T02:07:52.186Z,22.57
2018-08-03T02:08:52.957Z,22.57
2018-08-03T02:09:53.764Z,22.57
2018-08-03T02:10:54.535Z,22.58
2018-08-03T02:11:55.309Z,22.58
2018-08-03T02:12:56.085Z,22.58
2018-08-03T02:13:56.864Z,22.57
2018-08-03T02:14:57.666Z,22.57
2018-08-03T02:15:58.440Z,22.57
2018-08-03T02:16:59.210Z,22.57
2018-08-03T02:17:59.981Z,22.57
2018-08-03T02:19:00.761Z,22.57
2018-08-03T02:20:01.561Z,22.56
2018-08-03T02:21:02.335Z,22.55
2018-08-03T02:22:03.107Z,22.55
2018-08-03T02:23:03.888Z,22.54
2018-08-03T02:24:04.665Z,22.54
2018-08-03T02:25:05.457Z,22.54
2018-08-03T02:26:06.229Z,22.54
2018-08-03T02:27:07.005Z,22.53
2018-08-03T02:28:07.773Z,22.53
2018-08-03T02:29:08.557Z,22.52
2018-08-03T02:30:09.344Z,22.51
2018-08-03T02:31:10.117Z,22.51
2018-08-03T02:32:10.889Z,22.50
2018-08-03T02:33:11.666Z,22.50
2018-08-03T02:34:12.438Z,22.49
2018-08-03T02:35:13.240Z,22.49
2018-08-03T02:36:14.013Z,22.48
2018-08-03T02:37:14.786Z,22.48
2018-08-03T02:38:15.559Z,22.47
2018-08-03T02:39:16.332Z,22.46
2018-08-03T02:40:17.135Z,22.46
2018-08-03T02:41:17.915Z,22.45
2018-08-03T02:42:18.693Z,22.45
2018-08-03T02:43:19.464Z,22.44
2018-08-03T02:44:20.240Z,22.43
2018-08-03T02:45:21.042Z,22.42
2018-08-03T02:46:21.814Z,22.41
2018-08-03T02:47:22.591Z,22.41
2018-08-03T02:48:23.362Z,22.40
2018-08-03T02:49:24.137Z,22.40
2018-08-03T02:50:24.937Z,22.40
2018-08-03T02:51:25.710Z,22.39
2018-08-03T02:52:26.486Z,22.39
2018-08-03T02:53:27.257Z,22.38
2018-08-03T02:54:28.037Z,22.37
2018-08-03T02:55:28.832Z,22.36
2018-08-03T02:56:29.605Z,22.35
2018-08-03T02:57:30.378Z,22.33
2018-08-03T02:58:31.152Z,22.32
2018-08-03T02:59:31.926Z,22.31
2018-08-03T03:00:32.723Z,22.29
2018-08-03T03:01:33.492Z,22.28
2018-08-03T03:02:34.267Z,22.26
2018-08-03T03:03:35.037Z,22.24
2018-08-03T03:04:35.809Z,22.22
2018-08-03T03:05:36.611Z,22.21
2018-08-03T03:06:37.387Z,22.19
2018-08-03T03:07:38.160Z,22.18
2018-08-03T03:08:38.935Z,22.16
2018-08-03T03:09:39.710Z,22.14
2018-08-03T03:10:40.507Z,22.13
2018-08-03T03:11:41.279Z,22.11
2018-08-03T03:12:42.053Z,22.10
2018-08-03T03:13:42.825Z,22.09
2018-08-03T03:14:43.603Z,22.08
2018-08-03T03:15:44.405Z,22.08
2018-08-03T03:16:45.168Z,22.07
2018-08-03T03:17:45.943Z,22.06
2018-08-03T03:18:46.715Z,22.05
2018-08-03T03:19:47.498Z,22.05
2018-08-03T03:20:47.287Z,22.04
2018-08-03T03:21:49.069Z,22.03
2018-08-03T03:22:49.839Z,22.02
2018-08-03T03:23:50.611Z,22.01
2018-08-03T03:24:51.390Z,22.00
2018-08-03T03:25:52.187Z,21.99
2018-08-03T03:26:52.960Z,21.98
2018-08-03T03:27:53.731Z,21.97
2018-08-03T03:28:54.506Z,21.96
2018-08-03T03:29:55.286Z,21.95
2018-08-03T03:30:56.083Z,21.95
2018-08-03T03:31:57.852Z,21.94
2018-08-03T03:32:57.629Z,21.93
2018-08-03T03:33:58.396Z,21.93
2018-08-03T03:34:59.201Z,21.92
2018-08-03T03:35:59.971Z,21.92
2018-08-03T03:36:59.740Z,21.91
2018-08-03T03:38:01.520Z,21.90
2018-08-03T03:39:02.286Z,21.90
2018-08-03T03:40:03.091Z,21.89
2018-08-03T03:41:03.865Z,21.87
2018-08-03T03:42:04.638Z,21.86
2018-08-03T03:43:05.411Z,21.84
2018-08-03T03:44:06.185Z,21.83
2018-08-03T03:45:06.989Z,21.81
2018-08-03T03:46:07.759Z,21.80
2018-08-03T03:47:08.540Z,21.79
2018-08-03T03:48:09.309Z,21.78
2018-08-03T03:49:10.087Z,21.77
2018-08-03T03:50:10.884Z,21.76
2018-08-03T03:51:11.660Z,21.75
2018-08-03T03:52:12.435Z,21.74
2018-08-03T03:53:13.231Z,21.73
2018-08-03T03:54:14.393Z,21.72
2018-08-03T03:55:14.605Z,21.71
2018-08-03T03:56:13.804Z,21.70
2018-08-03T04:01:11.472Z,21.63
2018-08-03T04:02:12.245Z,21.63
2018-08-03T04:03:13.015Z,21.63
2018-08-03T04:04:13.786Z,21.63
2018-08-03T04:05:14.571Z,21.63
2018-08-03T04:06:15.353Z,21.64
2018-08-03T04:07:16.123Z,21.64
2018-08-03T04:08:16.903Z,21.64
2018-08-03T04:09:17.671Z,21.65
2018-08-03T04:10:18.450Z,21.65
2018-08-03T04:11:20.244Z,21.65
2018-08-03T04:12:19.074Z,21.65
2018-08-03T04:13:19.791Z,21.65
2018-08-03T04:14:21.572Z,21.65
2018-08-03T04:15:22.343Z,21.64
2018-08-03T04:16:23.139Z,21.64
2018-08-03T04:17:23.910Z,21.64
2018-08-03T04:18:24.677Z,21.63
2018-08-03T04:19:25.449Z,21.62
2018-08-03T04:20:26.223Z,21.61
2018-08-03T04:21:27.027Z,21.60
2018-08-03T04:22:27.798Z,21.60
2018-08-03T04:23:28.572Z,21.59
2018-08-03T04:24:29.346Z,21.58
2018-08-03T04:25:30.153Z,21.57
2018-08-03T04:26:30.927Z,21.56
2018-08-03T04:27:31.701Z,21.55
2018-08-03T04:28:32.476Z,21.55
2018-08-03T04:29:33.245Z,21.54
2018-08-03T04:30:35.015Z,21.54
2018-08-03T04:31:34.814Z,21.54
2018-08-03T04:32:35.581Z,21.54
2018-08-03T04:33:36.356Z,21.53
2018-08-03T04:34:37.129Z,21.53
2018-08-03T04:35:37.901Z,21.53
2018-08-03T04:36:38.700Z,21.53
2018-08-03T04:37:39.473Z,21.53
2018-08-03T04:38:40.250Z,21.52
2018-08-03T04:39:41.020Z,21.52
2018-08-03T04:40:41.802Z,21.52
2018-08-03T04:41:42.599Z,21.51
2018-08-03T04:42:43.378Z,21.51
2018-08-03T04:43:44.149Z,21.50
2018-08-03T04:44:44.924Z,21.50
2018-08-03T04:45:45.702Z,21.49
2018-08-03T04:46:46.495Z,21.49
2018-08-03T04:47:47.280Z,21.48
2018-08-03T04:48:48.050Z,21.48
2018-08-03T04:49:48.834Z,21.47
2018-08-03T04:50:49.595Z,21.47
2018-08-03T04:51:50.500Z,21.47
2018-08-03T04:52:50.183Z,21.48
2018-08-03T04:53:51.957Z,21.48
2018-08-03T04:54:52.731Z,21.49
2018-08-03T04:55:53.502Z,21.50
2018-08-03T04:56:54.298Z,21.50
2018-08-03T04:57:55.070Z,21.52
2018-08-03T04:58:55.843Z,21.53
2018-08-03T04:59:56.617Z,21.54
2018-08-03T05:00:57.390Z,21.55
2018-08-03T05:01:58.195Z,21.56
2018-08-03T05:02:58.970Z,21.58
2018-08-03T05:03:59.739Z,21.59
2018-08-03T05:05:00.519Z,21.61
2018-08-03T05:06:01.283Z,21.64
2018-08-03T05:07:02.096Z,21.68
2018-08-03T05:08:02.857Z,21.72
2018-08-03T05:09:03.640Z,21.78
2018-08-03T05:10:04.400Z,21.86
2018-08-03T05:11:05.180Z,21.96
2018-08-03T05:12:05.979Z,22.07
2018-08-03T05:13:06.748Z,22.18
2018-08-03T05:14:07.527Z,22.31
2018-08-03T05:15:08.305Z,22.43
2018-08-03T05:16:09.094Z,22.56
2018-08-03T05:17:09.908Z,22.70
2018-08-03T05:18:10.680Z,22.85
2018-08-03T05:19:11.454Z,23.02
2018-08-03T05:20:12.229Z,23.20
2018-08-03T05:21:13.004Z,23.41
2018-08-03T05:22:13.806Z,23.62
2018-08-03T05:23:14.580Z,23.83
2018-08-03T05:24:14.380Z,24.03
2018-08-03T05:25:16.123Z,24.21
2018-08-03T05:26:16.900Z,24.39
2018-08-03T05:27:17.698Z,24.58
2018-08-03T05:28:18.483Z,24.77
2018-08-03T05:29:19.249Z,24.94
2018-08-03T05:30:20.054Z,25.12
2018-08-03T05:31:19.812Z,25.30
2018-08-03T05:32:21.602Z,25.49
2018-08-03T05:33:22.379Z,25.68
2018-08-03T05:34:23.154Z,25.87
2018-08-03T05:35:23.951Z,26.04
2018-08-03T05:36:23.732Z,26.21
2018-08-03T05:37:24.507Z,26.40
2018-08-03T05:38:26.278Z,26.57
2018-08-03T05:39:27.060Z,26.73
2018-08-03T05:40:27.832Z,26.90
2018-08-03T05:41:28.603Z,27.08
2018-08-03T05:42:29.442Z,27.25
2018-08-03T05:43:29.177Z,27.44
2018-08-03T05:44:30.960Z,27.62
2018-08-03T05:45:31.745Z,27.79
2018-08-03T05:46:31.499Z,27.97
2018-08-03T05:47:33.352Z,28.15
2018-08-03T05:48:33.083Z,28.34
2018-08-03T05:49:33.846Z,28.53
2018-08-03T05:50:40.380Z,28.72
2018-08-03T05:51:37.178Z,28.92
2018-08-03T05:52:36.956Z,29.13
2018-08-03T05:53:37.729Z,29.35
2018-08-03T05:54:38.505Z,29.55
2018-08-03T05:55:39.275Z,29.76
2018-08-03T05:56:40.047Z,29.95
2018-08-03T05:57:39.848Z,30.15
2018-08-03T05:58:41.990Z,30.37
2018-08-03T06:03:28.798Z,34.52
2018-08-03T06:04:29.569Z,34.52
2018-08-03T06:05:30.338Z,34.52
2018-08-03T06:06:31.116Z,34.52
2018-08-03T06:07:31.885Z,34.53
2018-08-03T06:08:32.687Z,34.53
2018-08-03T06:09:33.476Z,34.53
2018-08-03T06:10:33.227Z,34.51
2018-08-03T06:11:34.996Z,34.49
2018-08-03T06:12:41.771Z,34.46
2018-08-03T06:13:36.565Z,34.45
2018-08-03T06:14:37.351Z,34.44
2018-08-03T06:15:38.110Z,34.44
2018-08-03T06:16:38.885Z,34.45
2018-08-03T06:17:39.657Z,34.49
2018-08-03T06:18:40.452Z,34.55
2018-08-03T06:19:42.219Z,34.62
2018-08-03T06:20:42.134Z,34.67
2018-08-03T06:21:41.774Z,34.73
2018-08-03T06:22:43.546Z,34.80
2018-08-03T06:23:44.354Z,34.87
2018-08-03T06:24:45.129Z,34.97
2018-08-03T06:25:45.904Z,35.09
2018-08-03T06:26:46.677Z,35.22
2018-08-03T06:27:47.448Z,35.34
2018-08-03T06:28:48.251Z,35.46
2018-08-03T06:29:49.177Z,35.56
2018-08-03T06:30:48.788Z,35.66
2018-08-03T06:31:50.563Z,35.78
2018-08-03T06:32:51.337Z,35.91
2018-08-03T06:33:52.129Z,36.04
2018-08-03T06:34:52.904Z,36.19
2018-08-03T06:35:53.675Z,36.33
2018-08-03T06:36:53.458Z,36.46
2018-08-03T06:37:55.230Z,36.55
2018-08-03T06:38:56.028Z,36.64
2018-08-03T06:39:56.800Z,36.73
2018-08-03T06:40:57.580Z,36.82
2018-08-03T06:41:58.360Z,36.91
2018-08-03T06:42:59.133Z,37.00
2018-08-03T06:43:59.933Z,37.10
2018-08-03T06:45:00.711Z,37.21
2018-08-03T06:46:01.477Z,37.30
2018-08-03T06:47:02.255Z,37.38
2018-08-03T06:48:03.028Z,37.46
2018-08-03T06:49:03.826Z,37.53
2018-08-03T06:50:04.602Z,37.58
2018-08-03T06:51:05.368Z,37.62
2018-08-03T06:52:06.140Z,37.65
2018-08-03T06:53:06.912Z,37.67
2018-08-03T06:54:07.710Z,37.68
2018-08-03T06:55:08.483Z,37.69
2018-08-03T06:56:09.256Z,37.72
2018-08-03T06:57:10.031Z,37.74
2018-08-03T06:58:10.802Z,37.77
2018-08-03T06:59:11.604Z,37.80
2018-08-03T07:00:12.377Z,37.83
2018-08-03T07:01:13.156Z,37.87
2018-08-03T07:02:13.930Z,37.93
2018-08-03T07:03:14.706Z,37.98
2018-08-03T07:04:15.513Z,38.01
2018-08-03T07:05:16.281Z,38.06
2018-08-03T07:06:17.058Z,38.08
2018-08-03T07:07:17.829Z,38.09
2018-08-03T07:08:18.601Z,38.10
2018-08-03T07:09:19.405Z,38.13
2018-08-03T07:10:20.180Z,38.16
2018-08-03T07:11:20.951Z,38.19
2018-08-03T07:12:21.731Z,38.22
2018-08-03T07:13:22.502Z,38.24
2018-08-03T07:14:23.304Z,38.25
2018-08-03T07:15:24.223Z,38.27
2018-08-03T07:16:24.181Z,38.30
2018-08-03T07:17:25.095Z,38.33
2018-08-03T07:18:26.008Z,38.35
2018-08-03T07:19:27.145Z,38.39
2018-08-03T07:20:27.158Z,38.41
2018-08-03T07:21:28.025Z,38.43
2018-08-03T07:22:28.969Z,38.44
2018-08-03T07:23:29.924Z,38.43
2018-08-03T07:24:31.003Z,38.43
2018-08-03T07:25:30.951Z,38.43
2018-08-03T07:26:31.904Z,38.44
2018-08-03T07:27:32.836Z,38.47
2018-08-03T07:28:33.784Z,38.47
2018-08-03T07:29:35.731Z,38.47
2018-08-03T07:30:35.574Z,38.45
2018-08-03T07:31:36.500Z,38.40
2018-08-03T07:32:37.421Z,38.37
2018-08-03T07:33:38.378Z,38.34
2018-08-03T07:34:39.436Z,38.31
2018-08-03T07:35:39.389Z,38.28
2018-08-03T07:36:40.314Z,38.25
2018-08-03T07:37:41.198Z,38.23
2018-08-03T07:38:42.099Z,38.20
2018-08-03T07:39:43.237Z,38.18
2018-08-03T07:40:43.165Z,38.16
2018-08-03T07:41:44.099Z,38.12
2018-08-03T07:42:45.031Z,38.08
2018-08-03T07:43:45.972Z,38.03
2018-08-03T07:44:46.695Z,37.99
2018-08-03T07:45:48.465Z,37.95
2018-08-03T07:46:49.245Z,37.91
2018-08-03T07:47:50.264Z,37.87
2018-08-03T07:48:50.167Z,37.83
2018-08-03T07:49:51.257Z,37.78
2018-08-03T07:50:51.211Z,37.74
2018-08-03T07:51:52.139Z,37.67
2018-08-03T07:52:53.076Z,37.61
2018-08-03T07:53:53.976Z,37.54
2018-08-03T07:54:55.041Z,37.48
2018-08-03T07:55:54.920Z,37.40
2018-08-03T07:56:55.873Z,37.33
2018-08-03T07:57:56.803Z,37.24
2018-08-03T07:58:57.726Z,37.14
2018-08-03T07:59:58.762Z,37.03
2018-08-03T08:00:58.706Z,36.92
2018-08-03T08:01:59.662Z,36.80
2018-08-03T08:03:00.587Z,36.67
2018-08-03T08:04:01.536Z,36.54
2018-08-03T08:05:02.667Z,36.41
2018-08-03T08:06:02.569Z,36.27
2018-08-03T08:07:03.519Z,36.12
2018-08-03T08:08:04.412Z,35.97
2018-08-03T08:09:05.296Z,35.82
2018-08-03T08:10:06.435Z,35.68
2018-08-03T08:11:06.369Z,35.53
2018-08-03T08:12:07.244Z,35.39
2018-08-03T08:13:08.141Z,35.26
2018-08-03T08:14:09.075Z,35.12
2018-08-03T08:15:10.240Z,34.99
2018-08-03T08:16:10.093Z,34.86
2018-08-03T08:17:11.003Z,34.75
2018-08-03T08:18:11.922Z,34.64
2018-08-03T08:19:12.861Z,34.54
2018-08-03T08:20:14.933Z,34.43
2018-08-03T08:21:13.866Z,34.33
2018-08-03T08:22:14.760Z,34.24
2018-08-03T08:23:16.668Z,34.14
2018-08-03T08:24:16.640Z,34.06
2018-08-03T08:25:17.638Z,33.98
2018-08-03T08:26:18.522Z,33.91
2018-08-03T08:27:19.429Z,33.84
2018-08-03T08:28:20.330Z,33.77
2018-08-03T08:29:21.285Z,33.70
2018-08-03T08:30:22.317Z,33.64
2018-08-03T08:31:22.302Z,33.57
2018-08-03T08:32:23.145Z,33.51
2018-08-03T08:33:23.838Z,33.45
2018-08-03T08:34:25.770Z,33.40
2018-08-03T08:35:25.505Z,33.35
2018-08-03T08:36:27.273Z,33.30
2018-08-03T08:37:28.052Z,33.25
2018-08-03T08:38:28.826Z,33.20
2018-08-03T08:39:28.599Z,33.14
2018-08-03T08:40:30.399Z,33.08
2018-08-03T08:41:31.177Z,33.02
2018-08-03T08:42:31.958Z,32.96
2018-08-03T08:43:32.848Z,32.90
2018-08-03T08:44:32.503Z,32.84
2018-08-03T08:45:34.299Z,32.79
2018-08-03T08:46:35.077Z,32.74
2018-08-03T08:47:35.848Z,32.69
2018-08-03T08:48:36.671Z,32.64
2018-08-03T08:49:38.445Z,32.58
2018-08-03T08:50:38.240Z,32.54
2018-08-03T08:51:39.014Z,32.50
2018-08-03T08:52:39.807Z,32.48
2018-08-03T08:53:40.561Z,32.45
2018-08-03T08:54:41.366Z,32.43
2018-08-03T08:55:42.134Z,32.42
2018-08-03T08:56:42.905Z,32.41
2018-08-03T08:57:43.682Z,32.40
2018-08-03T08:58:44.466Z,32.38
2018-08-03T08:59:45.323Z,32.36
2018-08-03T09:00:45.041Z,32.34
2018-08-03T09:01:47.172Z,32.33
2018-08-03T09:02:49.936Z,32.32
2018-08-03T09:03:59.721Z,32.07
2018-08-03T09:05:00.496Z,32.07
2018-08-03T09:06:01.291Z,32.07
2018-08-03T09:07:02.065Z,32.07
2018-08-03T09:08:02.835Z,32.06
2018-08-03T09:09:03.606Z,32.06
2018-08-03T09:10:04.386Z,32.06
2018-08-03T09:11:05.190Z,32.05
2018-08-03T09:12:05.954Z,32.04
2018-08-03T09:13:06.726Z,32.03
2018-08-03T09:14:06.494Z,32.01
2018-08-03T09:15:08.269Z,31.99
2018-08-03T09:16:09.066Z,31.96
2018-08-03T09:17:09.841Z,31.94
2018-08-03T09:18:10.619Z,31.93
2018-08-03T09:19:11.393Z,31.92
2018-08-03T09:20:12.167Z,31.92
2018-08-03T09:21:12.962Z,31.92
2018-08-03T09:22:13.839Z,31.93
2018-08-03T09:23:13.520Z,31.95
2018-08-03T09:24:15.296Z,31.97
2018-08-03T09:25:16.069Z,32.00
2018-08-03T09:26:16.869Z,32.03
2018-08-03T09:27:17.644Z,32.05
2018-08-03T09:28:18.454Z,32.07
2018-08-03T09:29:18.197Z,32.09
2018-08-03T09:30:19.971Z,32.12
2018-08-03T09:31:20.768Z,32.14
2018-08-03T09:32:21.544Z,32.16
2018-08-03T09:33:22.312Z,32.19
2018-08-03T09:34:23.082Z,32.23
2018-08-03T09:35:23.855Z,32.27
2018-08-03T09:36:24.659Z,32.31
2018-08-03T09:37:25.437Z,32.35
2018-08-03T09:38:26.196Z,32.39
2018-08-03T09:39:26.986Z,32.43
2018-08-03T09:40:27.744Z,32.47
2018-08-03T09:41:28.544Z,32.50
2018-08-03T09:42:29.318Z,32.54
2018-08-03T09:43:30.091Z,32.57
2018-08-03T09:44:30.875Z,32.60
2018-08-03T09:45:31.639Z,32.64
2018-08-03T09:46:32.442Z,32.68
2018-08-03T09:47:33.216Z,32.72
2018-08-03T09:48:33.990Z,32.76
2018-08-03T09:49:34.764Z,32.80
2018-08-03T09:50:35.553Z,32.85
2018-08-03T09:51:36.346Z,32.90
2018-08-03T09:52:37.119Z,32.95
2018-08-03T09:53:37.895Z,33.00
2018-08-03T09:54:38.665Z,33.05
2018-08-03T09:55:39.448Z,33.09
2018-08-03T09:56:40.277Z,33.13
2018-08-03T09:57:41.048Z,33.18
2018-08-03T09:58:41.822Z,33.23
2018-08-03T09:59:42.590Z,33.28
2018-08-03T10:00:43.371Z,33.34
2018-08-03T10:01:44.193Z,33.39
2018-08-03T10:02:43.942Z,33.45
2018-08-03T10:03:45.713Z,33.50
2018-08-03T10:04:46.485Z,33.54
2018-08-03T10:05:47.262Z,33.59
2018-08-03T10:06:48.142Z,33.65
2018-08-03T10:07:47.843Z,33.70
2018-08-03T10:08:49.614Z,33.74
2018-08-03T10:09:50.384Z,33.79
2018-08-03T10:10:51.161Z,33.84
2018-08-03T10:11:51.955Z,33.89
2018-08-03T10:12:52.798Z,33.94
2018-08-03T10:13:52.499Z,33.99
2018-08-03T10:14:54.272Z,34.04
2018-08-03T10:15:55.046Z,34.09
2018-08-03T10:16:55.844Z,34.14
2018-08-03T10:17:56.616Z,34.19
2018-08-03T10:18:57.391Z,34.23
2018-08-03T10:19:58.161Z,34.27
2018-08-03T10:20:58.933Z,34.31
2018-08-03T10:21:59.736Z,34.35
2018-08-03T10:23:00.508Z,34.38
2018-08-03T10:24:01.285Z,34.41
2018-08-03T10:25:02.052Z,34.43
2018-08-03T10:26:02.833Z,34.44
2018-08-03T10:27:03.623Z,34.45
2018-08-03T10:28:04.408Z,34.47
2018-08-03T10:29:05.170Z,34.49
2018-08-03T10:30:05.942Z,34.51
2018-08-03T10:31:06.716Z,34.54
2018-08-03T10:32:07.521Z,34.57
2018-08-03T10:33:08.299Z,34.61
2018-08-03T10:34:09.064Z,34.65
2018-08-03T10:35:09.892Z,34.69
2018-08-03T10:36:09.620Z,34.73
2018-08-03T10:37:11.417Z,34.77
2018-08-03T10:38:12.194Z,34.81
2018-08-03T10:39:12.966Z,34.85
2018-08-03T10:40:13.744Z,34.88
2018-08-03T10:41:14.520Z,34.93
2018-08-03T10:42:15.318Z,34.96
2018-08-03T10:43:16.235Z,34.99
2018-08-03T10:44:15.865Z,35.02
2018-08-03T10:45:17.647Z,35.06
2018-08-03T10:46:18.415Z,35.09
2018-08-03T10:47:19.220Z,35.13
2018-08-03T10:48:19.989Z,35.16
2018-08-03T10:49:20.772Z,35.19
2018-08-03T10:50:21.543Z,35.22
2018-08-03T10:51:22.373Z,35.25
2018-08-03T10:52:22.126Z,35.27
2018-08-03T10:53:23.896Z,35.29
2018-08-03T10:54:24.671Z,35.31
2018-08-03T10:55:25.443Z,35.33
2018-08-03T10:56:26.219Z,35.34
2018-08-03T10:57:27.012Z,35.36
2018-08-03T10:58:29.166Z,35.38
2018-08-03T11:03:32.890Z,35.71
2018-08-03T11:04:33.665Z,35.71
2018-08-03T11:05:34.432Z,35.71
2018-08-03T11:06:35.202Z,35.71
2018-08-03T11:07:35.975Z,35.72
2018-08-03T11:08:36.777Z,35.73
2018-08-03T11:09:37.543Z,35.73
2018-08-03T11:10:38.325Z,35.74
2018-08-03T11:11:39.101Z,35.75
2018-08-03T11:12:39.873Z,35.75
2018-08-03T11:13:40.699Z,35.76
2018-08-03T11:14:40.441Z,35.76
2018-08-03T11:15:42.212Z,35.77
2018-08-03T11:16:42.988Z,35.77
2018-08-03T11:17:43.763Z,35.78
2018-08-03T11:18:44.567Z,35.78
2018-08-03T11:19:45.336Z,35.79
2018-08-03T11:20:46.103Z,35.80
2018-08-03T11:21:46.874Z,35.80
2018-08-03T11:22:47.647Z,35.81
2018-08-03T11:23:48.447Z,35.81
2018-08-03T11:24:49.219Z,35.82
2018-08-03T11:25:49.997Z,35.83
2018-08-03T11:26:50.771Z,35.84
2018-08-03T11:27:50.554Z,35.86
2018-08-03T11:28:52.351Z,35.87
2018-08-03T11:29:53.125Z,35.88
2018-08-03T11:30:53.896Z,35.89
2018-08-03T11:31:54.670Z,35.90
2018-08-03T11:32:55.440Z,35.91
2018-08-03T11:33:56.246Z,35.92
2018-08-03T11:34:57.022Z,35.93
2018-08-03T11:35:57.802Z,35.93
2018-08-03T11:36:58.576Z,35.92
2018-08-03T11:37:59.363Z,35.89
2018-08-03T11:39:00.156Z,35.87
2018-08-03T11:40:00.944Z,35.84
2018-08-03T11:41:01.703Z,35.83
2018-08-03T11:42:02.480Z,35.81
2018-08-03T11:43:03.270Z,35.80
2018-08-03T11:44:03.052Z,35.80
2018-08-03T11:45:04.825Z,35.80
2018-08-03T11:46:05.604Z,35.80
2018-08-03T11:47:06.374Z,35.79
2018-08-03T11:48:07.150Z,35.80
2018-08-03T11:49:07.948Z,35.81
2018-08-03T11:50:08.722Z,35.82
2018-08-03T11:51:09.493Z,35.83
2018-08-03T11:52:10.271Z,35.84
2018-08-03T11:53:10.051Z,35.85
2018-08-03T11:54:11.847Z,35.86
2018-08-03T11:55:12.621Z,35.87
2018-08-03T11:56:13.396Z,35.88
2018-08-03T11:57:14.171Z,35.89
2018-08-03T11:58:14.946Z,35.91
2018-08-03T11:59:15.751Z,35.92
2018-08-03T12:00:16.525Z,35.93
2018-08-03T12:01:17.303Z,35.94
2018-08-03T12:02:18.074Z,35.96
2018-08-03T12:03:18.846Z,35.98
2018-08-03T12:04:19.648Z,35.99
2018-08-03T12:05:20.421Z,35.99
2018-08-03T12:06:21.237Z,36.00
2018-08-03T12:07:20.970Z,36.01
2018-08-03T12:08:22.747Z,36.01
2018-08-03T12:09:23.554Z,36.02
2018-08-03T12:10:24.324Z,36.04
2018-08-03T12:11:25.099Z,36.04
2018-08-03T12:12:25.921Z,36.05
2018-08-03T12:13:25.653Z,36.06
2018-08-03T12:14:27.446Z,36.07
2018-08-03T12:15:28.222Z,36.08
2018-08-03T12:16:28.996Z,36.09
2018-08-03T12:17:29.776Z,36.11
2018-08-03T12:18:30.546Z,36.13
2018-08-03T12:19:31.351Z,36.14
2018-08-03T12:20:32.124Z,36.16
2018-08-03T12:21:32.900Z,36.18
2018-08-03T12:22:33.670Z,36.20
2018-08-03T12:23:34.513Z,36.22
2018-08-03T12:24:34.248Z,36.24
2018-08-03T12:25:36.021Z,36.25
2018-08-03T12:26:36.799Z,36.27
2018-08-03T12:27:37.570Z,36.29
2018-08-03T12:28:38.351Z,36.30
2018-08-03T12:29:39.147Z,36.31
2018-08-03T12:30:39.920Z,36.33
2018-08-03T12:31:40.779Z,36.34
2018-08-03T12:32:40.467Z,36.36
2018-08-03T12:33:42.239Z,36.37
2018-08-03T12:34:43.040Z,36.39
2018-08-03T12:35:43.812Z,36.40
2018-08-03T12:36:44.590Z,36.41
2018-08-03T12:37:45.361Z,36.42
2018-08-03T12:38:46.222Z,36.43
2018-08-03T12:39:45.955Z,36.45
2018-08-03T12:40:47.737Z,36.46
2018-08-03T12:41:48.507Z,36.48
2018-08-03T12:42:49.272Z,36.49
2018-08-03T12:43:50.044Z,36.51
2018-08-03T12:44:50.850Z,36.52
2018-08-03T12:45:51.636Z,36.53
2018-08-03T12:46:51.395Z,36.54
2018-08-03T12:47:53.166Z,36.55
2018-08-03T12:48:53.941Z,36.57
2018-08-03T12:49:54.740Z,36.57
2018-08-03T12:50:55.522Z,36.58
2018-08-03T12:51:56.294Z,36.59
2018-08-03T12:52:57.094Z,36.60
2018-08-03T12:53:57.841Z,36.61
2018-08-03T12:54:58.646Z,36.62
2018-08-03T12:55:59.422Z,36.64
2018-08-03T12:57:00.197Z,36.66
2018-08-03T12:58:00.973Z,36.68
2018-08-03T12:59:02.119Z,36.70
2018-08-03T13:00:03.391Z,36.72
2018-08-03T13:01:01.579Z,36.75
2018-08-03T13:06:04.091Z,37.48
2018-08-03T13:07:04.925Z,37.48
2018-08-03T13:08:04.842Z,37.48
2018-08-03T13:09:05.406Z,37.48
2018-08-03T13:10:07.183Z,37.48
2018-08-03T13:11:07.974Z,37.48
2018-08-03T13:12:08.750Z,37.49
2018-08-03T13:13:09.586Z,37.49
2018-08-03T13:14:09.296Z,37.49
2018-08-03T13:15:11.090Z,37.50
2018-08-03T13:16:11.861Z,37.51
2018-08-03T13:17:12.638Z,37.52
2018-08-03T13:18:13.413Z,37.53
2018-08-03T13:19:14.179Z,37.54
2018-08-03T13:20:14.973Z,37.56
2018-08-03T13:21:15.764Z,37.56
2018-08-03T13:22:16.521Z,37.56
2018-08-03T13:23:16.292Z,37.57